Time;durP1;ratioP1;P1;durP2;ratioP2;P2;SDS_P1;SDS_P2;PMS_P1;PMS_P2;Temp;Humidity;BMP_temperature;BMP_pressure;BME280_temperature;BME280_humidity;BME280_pressure;Samples;Min_cycle;Max_cycle;Signal;HPM_P1;HPM_P2
2023/09/18 00:00:13;;;;;;;17.20;11.80;;;20.40;85.60;;;;;;5035742;28;20048;-76
2023/09/18 00:02:39;;;;;;;14.10;11.55;;;20.40;86.20;;;;;;5031873;28;20025;-76
2023/09/18 00:05:05;;;;;;;15.95;12.07;;;20.40;85.60;;;;;;5032999;28;20033;-76
2023/09/18 00:07:31;;;;;;;15.45;11.90;;;20.40;85.60;;;;;;5031745;28;20021;-76
2023/09/18 00:09:57;;;;;;;14.38;11.68;;;20.40;85.60;;;;;;5031724;28;20029;-76
2023/09/18 00:12:22;;;;;;;15.23;11.07;;;20.40;85.70;;;;;;5014037;28;20033;-76
2023/09/18 00:14:51;;;;;;;13.75;11.07;;;20.40;85.70;;;;;;5033123;28;20070;-76
2023/09/18 00:17:17;;;;;;;16.67;11.40;;;20.40;85.70;;;;;;5030599;28;20030;-75
2023/09/18 00:19:43;;;;;;;14.68;11.23;;;20.40;85.70;;;;;;5012274;28;20037;-76
2023/09/18 00:22:09;;;;;;;16.80;11.80;;;20.40;85.70;;;;;;5031118;28;20458;-76
2023/09/18 00:24:35;;;;;;;17.23;12.27;;;20.40;85.70;;;;;;5029010;28;20033;-76
2023/09/18 00:27:02;;;;;;;16.90;12.35;;;20.40;85.70;;;;;;5032390;28;20064;-76
2023/09/18 00:29:27;;;;;;;15.27;11.93;;;20.40;85.70;;;;;;5028331;28;20017;-76
2023/09/18 00:31:53;;;;;;;14.68;11.38;;;20.40;85.70;;;;;;5021274;28;20040;-76
2023/09/18 00:34:19;;;;;;;14.60;11.50;;;20.40;85.70;;;;;;5031960;28;20025;-76
2023/09/18 00:36:45;;;;;;;16.45;11.70;;;20.40;85.70;;;;;;5031172;28;20028;-76
2023/09/18 00:39:10;;;;;;;15.50;12.05;;;20.40;85.70;;;;;;5030207;28;20108;-76
2023/09/18 00:41:36;;;;;;;14.10;11.45;;;20.40;85.70;;;;;;5031713;28;20370;-76
2023/09/18 00:44:02;;;;;;;14.63;12.50;;;20.40;85.70;;;;;;5033807;28;20029;-76
2023/09/18 00:46:28;;;;;;;16.10;12.70;;;20.40;86.40;;;;;;5035928;28;20389;-76
2023/09/18 00:48:55;;;;;;;13.98;12.00;;;20.40;85.80;;;;;;5034748;28;20055;-76
2023/09/18 00:51:21;;;;;;;15.77;12.07;;;20.40;85.80;;;;;;5035562;28;20106;-76
2023/09/18 00:53:48;;;;;;;15.43;12.60;;;20.40;85.80;;;;;;5018208;28;20083;-76
2023/09/18 00:56:16;;;;;;;14.60;12.45;;;20.40;85.80;;;;;;5034684;28;20025;-76
2023/09/18 00:58:43;;;;;;;15.88;11.68;;;20.40;85.80;;;;;;5030873;28;20019;-75
2023/09/18 01:01:10;;;;;;;15.55;12.48;;;20.40;85.80;;;;;;5035208;28;20060;-76
2023/09/18 01:03:36;;;;;;;18.35;12.40;;;20.30;85.70;;;;;;5034559;28;20029;-76
2023/09/18 01:06:03;;;;;;;15.93;12.32;;;20.30;85.80;;;;;;5034398;28;20479;-76
2023/09/18 01:08:30;;;;;;;15.15;11.73;;;20.40;85.80;;;;;;5035956;28;20113;-76
2023/09/18 01:11:36;;;;;;;13.68;11.95;;;20.30;85.80;;;;;;5035571;28;20108;-76
2023/09/18 01:14:17;;;;;;;15.18;11.60;;;20.40;85.80;;;;;;5031149;28;20128;-76
2023/09/18 01:16:56;;;;;;;16.92;12.25;;;20.40;85.80;;;;;;5032320;28;20094;-76
2023/09/18 01:19:51;;;;;;;16.63;12.40;;;20.30;85.80;;;;;;5034777;28;20021;-76
2023/09/18 01:22:18;;;;;;;15.77;12.10;;;20.40;85.80;;;;;;5043339;28;20464;-76
2023/09/18 01:24:47;;;;;;;16.10;11.48;;;20.30;85.80;;;;;;5033909;28;20354;-76
2023/09/18 01:27:14;;;;;;;15.60;12.30;;;20.40;85.90;;;;;;5034173;28;20025;-76
2023/09/18 01:29:40;;;;;;;15.85;12.93;;;20.40;85.90;;;;;;5035202;28;20025;-76
2023/09/18 01:32:06;;;;;;;15.20;12.52;;;20.40;85.90;;;;;;5035598;28;20052;-76
2023/09/18 01:34:39;;;;;;;15.68;12.80;;;20.40;85.90;;;;;;5036055;28;20033;-76
2023/09/18 01:37:08;;;;;;;14.93;11.90;;;20.40;85.90;;;;;;5033189;28;20037;-76
2023/09/18 01:39:35;;;;;;;18.02;13.15;;;20.40;85.90;;;;;;5032739;28;20030;-76
2023/09/18 01:42:05;;;;;;;15.00;12.98;;;20.40;85.90;;;;;;5036384;28;20036;-76
2023/09/18 01:44:34;;;;;;;15.32;12.52;;;20.40;86.00;;;;;;5032383;28;20021;-76
2023/09/18 01:47:02;;;;;;;18.40;13.40;;;20.40;86.00;;;;;;5034923;28;20057;-76
2023/09/18 01:49:33;;;;;;;16.00;12.30;;;20.40;86.00;;;;;;5008826;28;20093;-76
2023/09/18 01:51:58;;;;;;;15.30;12.20;;;20.40;85.90;;;;;;5033722;28;20060;-76
2023/09/18 01:54:25;;;;;;;17.33;12.98;;;20.40;85.90;;;;;;5035072;28;20033;-76
2023/09/18 01:56:53;;;;;;;14.98;11.50;;;20.40;85.90;;;;;;5035334;28;20032;-76
2023/09/18 01:59:20;;;;;;;15.55;12.48;;;20.40;86.00;;;;;;5031601;28;20042;-76
2023/09/18 02:01:46;;;;;;;16.75;13.15;;;20.40;86.00;;;;;;5033916;28;20036;-76
2023/09/18 02:04:12;;;;;;;17.90;12.52;;;20.40;86.10;;;;;;5034153;28;20037;-76
2023/09/18 02:06:41;;;;;;;15.45;12.70;;;20.40;86.00;;;;;;5035827;28;20047;-76
2023/09/18 02:09:08;;;;;;;18.45;13.05;;;20.40;86.10;;;;;;5032325;28;20542;-76
2023/09/18 02:11:39;;;;;;;16.30;13.52;;;20.40;86.00;;;;;;5034969;28;20037;-76
2023/09/18 02:14:07;;;;;;;15.80;11.82;;;20.40;86.00;;;;;;5015666;28;20137;-76
2023/09/18 02:16:37;;;;;;;16.40;12.32;;;20.40;86.00;;;;;;5034246;28;20408;-76
2023/09/18 02:19:03;;;;;;;16.58;12.27;;;20.40;86.00;;;;;;5031331;28;20037;-76
2023/09/18 02:21:30;;;;;;;14.10;11.45;;;20.40;86.00;;;;;;5036908;28;20044;-76
2023/09/18 02:23:56;;;;;;;17.42;12.63;;;20.40;86.00;;;;;;5034731;28;20064;-76
2023/09/18 02:26:24;;;;;;;16.38;12.75;;;20.40;86.00;;;;;;5035944;28;20029;-76
2023/09/18 02:28:53;;;;;;;15.68;11.45;;;20.40;86.00;;;;;;5035941;28;20029;-76
2023/09/18 02:31:19;;;;;;;15.32;12.60;;;20.40;86.00;;;;;;5033588;28;20072;-76
2023/09/18 02:33:45;;;;;;;14.60;11.98;;;20.40;86.00;;;;;;5032304;28;20327;-76
2023/09/18 02:36:11;;;;;;;15.25;12.02;;;20.40;86.00;;;;;;5034386;28;20033;-76
2023/09/18 02:38:37;;;;;;;16.13;12.68;;;20.40;86.00;;;;;;5041234;28;20022;-75
2023/09/18 02:41:03;;;;;;;17.35;13.65;;;20.40;86.10;;;;;;5043480;28;20025;-76
2023/09/18 02:43:29;;;;;;;16.20;11.75;;;20.40;86.10;;;;;;5032343;28;20462;-76
2023/09/18 02:45:55;;;;;;;15.98;11.85;;;20.40;86.10;;;;;;5018558;28;20361;-76
2023/09/18 02:48:21;;;;;;;17.58;12.65;;;20.40;86.10;;;;;;5017863;28;20108;-76
2023/09/18 02:50:47;;;;;;;14.68;12.00;;;20.40;86.10;;;;;;5032086;28;20061;-76
2023/09/18 02:53:23;;;;;;;17.77;12.40;;;20.40;86.10;;;;;;5016246;28;20056;-76
2023/09/18 02:55:55;;;;;;;13.70;11.35;;;20.40;86.20;;;;;;5032530;28;20040;-75
2023/09/18 02:58:22;;;;;;;17.80;11.75;;;20.40;86.20;;;;;;5032293;28;20068;-75
2023/09/18 03:00:50;;;;;;;15.38;12.15;;;20.40;86.20;;;;;;5030503;28;20037;-76
2023/09/18 03:03:17;;;;;;;15.82;11.38;;;20.40;86.20;;;;;;5036449;28;20028;-76
2023/09/18 03:05:44;;;;;;;16.58;12.20;;;20.40;86.20;;;;;;5043635;28;20025;-76
2023/09/18 03:08:11;;;;;;;14.93;12.23;;;20.40;86.30;;;;;;5033464;28;20045;-76
2023/09/18 03:10:42;;;;;;;16.83;12.32;;;20.40;86.30;;;;;;5029233;28;20112;-76
2023/09/18 03:13:10;;;;;;;16.30;11.30;;;20.40;86.30;;;;;;5030606;28;20043;-76
2023/09/18 03:15:37;;;;;;;15.38;11.52;;;20.40;86.30;;;;;;5014275;28;20778;-76
2023/09/18 03:18:04;;;;;;;16.05;11.25;;;20.40;86.30;;;;;;5032761;28;20033;-76
2023/09/18 03:20:30;;;;;;;15.93;11.70;;;20.40;86.20;;;;;;5023992;28;20052;-76
2023/09/18 03:22:58;;;;;;;15.75;12.23;;;20.40;86.20;;;;;;5015356;28;20072;-76
2023/09/18 03:25:24;;;;;;;13.27;11.32;;;20.40;86.20;;;;;;5033260;28;20029;-76
2023/09/18 03:27:56;;;;;;;16.38;12.35;;;20.40;86.90;;;;;;5011579;28;20059;-75
2023/09/18 03:30:26;;;;;;;15.10;11.15;;;20.40;86.20;;;;;;5032015;28;20456;-76
2023/09/18 03:32:52;;;;;;;14.93;11.70;;;20.40;86.20;;;;;;5034751;28;20112;-75
2023/09/18 03:35:20;;;;;;;16.90;11.43;;;20.30;86.20;;;;;;5033156;28;20039;-76
2023/09/18 03:37:53;;;;;;;15.98;10.93;;;20.40;86.30;;;;;;5033298;28;20056;-75
2023/09/18 03:40:20;;;;;;;15.48;11.43;;;20.40;86.40;;;;;;5012489;28;20113;-76
2023/09/18 03:42:46;;;;;;;16.48;11.05;;;20.40;86.40;;;;;;5034461;28;20038;-75
2023/09/18 03:45:12;;;;;;;14.90;10.02;;;20.40;86.40;;;;;;5033752;28;20059;-76
2023/09/18 03:47:40;;;;;;;13.85;10.68;;;20.40;86.40;;;;;;5031456;28;20430;-75
2023/09/18 03:50:07;;;;;;;15.05;10.95;;;20.40;86.40;;;;;;5032027;28;20033;-76
2023/09/18 03:52:35;;;;;;;15.75;10.80;;;20.40;86.40;;;;;;5032872;28;20420;-76
2023/09/18 03:55:01;;;;;;;13.48;10.73;;;20.40;86.40;;;;;;5031325;28;20025;-76
2023/09/18 03:57:27;;;;;;;13.85;10.80;;;20.40;86.40;;;;;;5034421;28;20032;-76
2023/09/18 03:59:52;;;;;;;13.05;10.25;;;20.40;86.50;;;;;;5031373;28;20068;-76
2023/09/18 04:02:18;;;;;;;15.85;10.90;;;20.40;86.50;;;;;;5031105;28;20057;-76
2023/09/18 04:04:44;;;;;;;13.13;10.32;;;20.40;87.20;;;;;;5031840;28;20068;-76
2023/09/18 04:07:11;;;;;;;12.35;10.02;;;20.40;86.50;;;;;;5030568;28;20231;-75
2023/09/18 04:09:37;;;;;;;13.88;10.25;;;20.50;86.60;;;;;;5032063;28;20031;-76
2023/09/18 04:12:05;;;;;;;14.85;11.25;;;20.50;86.60;;;;;;5031863;28;20072;-76
2023/09/18 04:14:32;;;;;;;14.05;11.45;;;20.50;86.60;;;;;;5034208;28;20029;-76
2023/09/18 04:16:57;;;;;;;16.30;10.50;;;20.50;86.60;;;;;;5029789;28;20168;-75
2023/09/18 04:19:23;;;;;;;13.80;10.70;;;20.40;86.60;;;;;;5028728;28;20427;-75
2023/09/18 04:21:49;;;;;;;15.55;11.30;;;20.50;86.60;;;;;;5031381;28;20045;-77
2023/09/18 04:24:15;;;;;;;15.27;11.57;;;20.40;86.60;;;;;;5032608;28;20104;-75
2023/09/18 04:26:41;;;;;;;15.10;11.00;;;20.50;86.70;;;;;;5034186;28;20029;-76
2023/09/18 04:29:07;;;;;;;14.18;11.63;;;20.40;86.70;;;;;;5030796;28;20052;-76
2023/09/18 04:31:32;;;;;;;17.30;11.10;;;20.40;86.70;;;;;;5015304;28;20037;-75
2023/09/18 04:33:59;;;;;;;15.75;10.75;;;20.40;86.70;;;;;;5011895;28;20021;-76
2023/09/18 04:36:25;;;;;;;14.73;10.93;;;20.40;86.80;;;;;;5031186;28;20116;-76
2023/09/18 04:38:51;;;;;;;15.10;11.40;;;20.50;86.80;;;;;;5030107;28;20021;-77
2023/09/18 04:41:17;;;;;;;14.20;10.68;;;20.40;86.80;;;;;;5031638;28;20014;-76
2023/09/18 04:43:44;;;;;;;14.35;10.45;;;20.40;86.80;;;;;;5030462;28;20021;-76
2023/09/18 04:46:10;;;;;;;13.43;10.02;;;20.40;86.80;;;;;;5034148;28;20059;-76
2023/09/18 04:48:35;;;;;;;14.60;10.18;;;20.40;87.50;;;;;;5030240;28;20135;-76
2023/09/18 04:51:03;;;;;;;15.60;10.90;;;20.40;86.90;;;;;;5025999;28;20221;-73
2023/09/18 04:53:31;;;;;;;14.95;10.95;;;20.40;86.90;;;;;;5028843;28;20057;-72
2023/09/18 04:55:57;;;;;;;16.75;11.13;;;20.40;86.90;;;;;;5041864;28;20422;-77
2023/09/18 04:58:22;;;;;;;13.27;9.77;;;20.40;86.90;;;;;;5016461;28;20021;-77
2023/09/18 05:00:59;;;;;;;12.05;8.60;;;20.30;86.90;;;;;;5030151;28;20351;-77
2023/09/18 05:03:29;;;;;;;11.75;8.70;;;20.40;86.90;;;;;;5033541;28;20029;-77
2023/09/18 05:05:55;;;;;;;13.07;8.27;;;20.40;86.80;;;;;;5038851;28;20478;-77
2023/09/18 05:08:22;;;;;;;12.55;7.90;;;20.40;86.80;;;;;;5030280;28;20034;-77
2023/09/18 05:10:48;;;;;;;13.68;7.72;;;20.50;86.80;;;;;;5030688;28;20033;-77
2023/09/18 05:13:14;;;;;;;11.80;7.75;;;20.50;86.70;;;;;;5030971;28;20130;-77
2023/09/18 05:15:39;;;;;;;15.77;7.57;;;20.50;86.60;;;;;;5031418;28;20080;-77
2023/09/18 05:18:05;;;;;;;11.90;7.57;;;20.60;86.60;;;;;;5029580;28;20473;-78
2023/09/18 05:20:31;;;;;;;12.05;7.47;;;20.60;86.60;;;;;;5028651;28;20102;-77
2023/09/18 05:22:59;;;;;;;10.55;7.25;;;20.60;86.60;;;;;;5033725;28;20458;-78
2023/09/18 05:25:27;;;;;;;10.15;6.95;;;20.60;86.60;;;;;;5032190;28;20057;-77
2023/09/18 05:27:57;;;;;;;11.02;6.93;;;20.60;86.60;;;;;;5042059;28;20033;-78
2023/09/18 05:30:40;;;;;;;11.05;6.93;;;20.60;86.60;;;;;;5045346;28;20474;-77
2023/09/18 05:33:08;;;;;;;10.50;7.40;;;20.70;86.70;;;;;;5042619;28;20473;-78
2023/09/18 05:35:42;;;;;;;10.15;7.32;;;20.70;86.70;;;;;;5048803;28;20033;-77
2023/09/18 05:38:09;;;;;;;13.05;7.35;;;20.60;86.70;;;;;;5033230;28;20134;-77
2023/09/18 05:40:35;;;;;;;12.48;7.53;;;20.60;86.80;;;;;;5032580;28;20036;-76
2023/09/18 05:43:01;;;;;;;14.57;8.40;;;20.60;86.80;;;;;;5033529;28;20033;-77
2023/09/18 05:45:28;;;;;;;10.77;7.75;;;20.70;86.90;;;;;;5033881;28;20021;-78
2023/09/18 05:48:01;;;;;;;11.90;7.85;;;20.60;86.90;;;;;;5033711;28;20120;-77
2023/09/18 05:50:29;;;;;;;11.95;8.05;;;20.70;87.00;;;;;;5031752;28;20417;-78
2023/09/18 05:52:59;;;;;;;12.07;7.88;;;20.70;86.90;;;;;;5031625;28;20029;-77
2023/09/18 05:55:27;;;;;;;11.70;7.90;;;20.70;87.00;;;;;;5030284;28;20036;-78
2023/09/18 05:57:54;;;;;;;14.07;8.00;;;20.70;87.00;;;;;;5027404;28;20029;-80
2023/09/18 06:00:20;;;;;;;11.73;7.70;;;20.70;87.10;;;;;;5042321;28;20069;-77
2023/09/18 06:02:46;;;;;;;13.82;8.75;;;20.70;87.10;;;;;;5039067;28;20033;-80
2023/09/18 06:05:12;;;;;;;13.52;8.25;;;20.70;87.10;;;;;;5033636;28;20112;-77
2023/09/18 06:07:38;;;;;;;11.68;7.60;;;20.70;87.20;;;;;;5034172;28;20048;-78
2023/09/18 06:10:04;;;;;;;12.65;8.07;;;20.70;87.20;;;;;;5029061;28;20025;-77
2023/09/18 06:12:30;;;;;;;12.05;8.15;;;20.70;87.20;;;;;;5024335;28;20110;-76
2023/09/18 06:14:56;;;;;;;12.10;9.18;;;20.80;87.30;;;;;;5045443;28;20029;-77
2023/09/18 06:17:22;;;;;;;12.82;8.43;;;20.80;87.20;;;;;;5032346;28;20026;-76
2023/09/18 06:19:48;;;;;;;11.68;8.38;;;20.80;87.20;;;;;;5031656;28;20474;-77
2023/09/18 06:22:14;;;;;;;12.80;9.00;;;20.80;87.20;;;;;;5033977;28;20033;-79
2023/09/18 06:24:40;;;;;;;12.25;8.70;;;20.80;87.20;;;;;;5034646;28;20041;-79
2023/09/18 06:27:06;;;;;;;14.07;8.77;;;20.90;87.20;;;;;;5044404;28;20128;-77
2023/09/18 06:29:33;;;;;;;13.20;9.38;;;20.90;87.10;;;;;;5029109;28;20041;-79
2023/09/18 06:31:59;;;;;;;13.88;8.88;;;20.90;87.10;;;;;;5031024;28;20029;-76
2023/09/18 06:34:25;;;;;;;11.27;8.25;;;20.90;87.00;;;;;;5043459;28;20068;-80
2023/09/18 06:36:51;;;;;;;12.13;8.23;;;21.00;87.00;;;;;;5029653;28;20104;-79
2023/09/18 06:39:17;;;;;;;13.07;7.95;;;21.00;86.90;;;;;;5031732;28;20112;-77
2023/09/18 06:41:43;;;;;;;14.23;7.95;;;21.00;86.90;;;;;;5028372;28;20026;-76
2023/09/18 06:44:11;;;;;;;11.98;8.15;;;21.00;86.90;;;;;;5013893;28;20025;-76
2023/09/18 06:46:37;;;;;;;12.88;8.48;;;21.00;87.00;;;;;;5029181;28;20466;-76
2023/09/18 06:49:03;;;;;;;10.13;7.13;;;21.00;86.90;;;;;;5031041;28;20037;-77
2023/09/18 06:51:29;;;;;;;12.05;8.13;;;21.00;87.00;;;;;;5030296;28;20112;-78
2023/09/18 06:53:57;;;;;;;10.10;6.93;;;21.00;87.00;;;;;;5043759;28;20117;-79
2023/09/18 06:56:23;;;;;;;11.90;6.97;;;21.00;86.90;;;;;;5042968;28;20095;-80
2023/09/18 06:58:51;;;;;;;14.35;7.05;;;21.00;87.00;;;;;;5032301;28;20030;-79
2023/09/18 07:01:19;;;;;;;10.93;7.07;;;21.00;87.00;;;;;;5048758;28;20029;-79
2023/09/18 07:03:46;;;;;;;11.70;7.03;;;21.00;87.00;;;;;;5016630;28;20048;-78
2023/09/18 07:06:18;;;;;;;11.45;6.45;;;21.00;86.90;;;;;;5033305;28;20445;-79
2023/09/18 07:08:44;;;;;;;10.45;5.65;;;21.00;86.80;;;;;;5052401;28;20293;-79
2023/09/18 07:11:11;;;;;;;10.98;6.10;;;21.00;86.70;;;;;;5032483;28;20033;-80
2023/09/18 07:13:38;;;;;;;10.55;5.97;;;21.10;86.80;;;;;;5030876;28;20037;-79
2023/09/18 07:16:04;;;;;;;9.52;5.15;;;21.10;86.60;;;;;;5030570;28;20091;-79
2023/09/18 07:18:30;;;;;;;8.15;4.88;;;21.10;86.40;;;;;;5029283;28;20346;-79
2023/09/18 07:20:55;;;;;;;7.97;4.65;;;21.10;86.40;;;;;;5032208;28;20132;-79
2023/09/18 07:23:21;;;;;;;9.23;4.20;;;21.10;86.30;;;;;;5045154;28;20082;-79
2023/09/18 07:25:50;;;;;;;8.48;3.95;;;21.10;86.10;;;;;;5031027;28;20025;-79
2023/09/18 07:28:17;;;;;;;7.93;4.05;;;21.10;85.90;;;;;;5029121;28;20033;-80
2023/09/18 07:30:46;;;;;;;7.68;3.65;;;21.10;85.70;;;;;;5026638;28;22130;-79
2023/09/18 07:33:15;;;;;;;7.70;3.50;;;21.20;85.60;;;;;;5029476;28;20030;-79
2023/09/18 07:35:41;;;;;;;7.95;3.60;;;21.20;85.40;;;;;;5030392;28;20022;-79
2023/09/18 07:38:07;;;;;;;7.18;3.20;;;21.20;85.40;;;;;;5018787;28;20021;-80
2023/09/18 07:40:34;;;;;;;8.23;3.92;;;21.20;85.30;;;;;;5028555;28;20033;-79
2023/09/18 07:42:59;;;;;;;6.95;3.92;;;21.20;85.20;;;;;;5030404;28;20053;-79
2023/09/18 07:45:25;;;;;;;7.80;3.60;;;21.20;85.10;;;;;;5044826;28;20469;-79
2023/09/18 07:47:51;;;;;;;7.57;3.75;;;21.20;85.10;;;;;;5028277;28;20107;-78
2023/09/18 07:50:17;;;;;;;7.95;3.83;;;21.30;85.00;;;;;;5013223;28;20068;-77
2023/09/18 07:52:43;;;;;;;6.78;3.30;;;21.30;84.90;;;;;;5028095;28;20612;-78
2023/09/18 07:55:09;;;;;;;7.38;3.40;;;21.30;84.70;;;;;;5029410;28;20409;-77
2023/09/18 07:57:37;;;;;;;6.80;3.47;;;21.30;84.50;;;;;;5043312;28;20025;-79
2023/09/18 08:00:07;;;;;;;7.18;3.72;;;21.30;84.40;;;;;;5027525;28;20466;-78
2023/09/18 08:02:38;;;;;;;5.53;3.03;;;21.30;84.20;;;;;;5028195;28;20045;-78
2023/09/18 08:05:04;;;;;;;7.22;3.35;;;21.30;84.10;;;;;;5009497;28;20159;-78
2023/09/18 08:07:30;;;;;;;6.38;2.85;;;21.30;83.90;;;;;;5027716;28;20037;-79
2023/09/18 08:09:56;;;;;;;6.65;3.00;;;21.30;83.70;;;;;;5028135;28;20037;-79
2023/09/18 08:12:23;;;;;;;5.75;2.80;;;21.30;83.60;;;;;;5007322;28;20280;-80
2023/09/18 08:14:50;;;;;;;6.53;3.03;;;21.40;83.60;;;;;;5034079;28;20497;-79
2023/09/18 08:17:16;;;;;;;6.78;2.92;;;21.40;83.50;;;;;;5028320;28;20009;-80
2023/09/18 08:19:44;;;;;;;6.72;2.92;;;21.40;83.20;;;;;;5029453;28;20100;-80
2023/09/18 08:22:11;;;;;;;6.28;2.60;;;21.40;83.00;;;;;;5028357;28;20112;-80
2023/09/18 08:24:37;;;;;;;6.40;2.58;;;21.50;83.00;;;;;;5027147;28;20060;-78
2023/09/18 08:27:03;;;;;;;5.80;3.13;;;21.50;82.90;;;;;;5010147;28;20080;-79
2023/09/18 08:29:29;;;;;;;6.03;2.70;;;21.60;82.80;;;;;;5026655;28;20025;-79
2023/09/18 08:31:55;;;;;;;5.95;2.60;;;21.60;82.60;;;;;;5028948;28;20415;-79
2023/09/18 08:34:20;;;;;;;5.68;2.60;;;21.60;82.50;;;;;;5028149;28;20435;-77
2023/09/18 08:36:46;;;;;;;5.63;2.67;;;21.70;82.40;;;;;;5028072;28;20025;-79
2023/09/18 08:39:12;;;;;;;6.90;2.83;;;21.70;82.30;;;;;;5026662;28;20473;-80
2023/09/18 08:41:41;;;;;;;6.82;2.72;;;21.70;82.20;;;;;;5031816;28;20034;-74
2023/09/18 08:44:09;;;;;;;6.35;2.75;;;21.70;82.00;;;;;;5026508;28;20033;-80
2023/09/18 08:46:36;;;;;;;5.88;2.90;;;21.80;81.90;;;;;;5041097;28;20064;-80
2023/09/18 08:49:04;;;;;;;8.57;2.92;;;22.00;81.40;;;;;;5028245;28;20021;-80
2023/09/18 08:51:31;;;;;;;5.93;2.78;;;22.20;80.80;;;;;;5028893;28;20034;-80
2023/09/18 08:53:57;;;;;;;4.57;1.90;;;22.30;80.50;;;;;;5028589;28;20014;-79
2023/09/18 08:56:23;;;;;;;6.28;2.35;;;22.30;80.30;;;;;;5027052;28;20026;-79
2023/09/18 08:58:49;;;;;;;5.10;2.40;;;22.20;80.20;;;;;;5027085;28;20324;-73
2023/09/18 09:01:15;;;;;;;5.35;2.40;;;22.20;80.10;;;;;;5025549;28;20053;-77
2023/09/18 09:03:42;;;;;;;5.50;2.42;;;22.20;80.00;;;;;;5028125;28;20178;-76
2023/09/18 09:06:09;;;;;;;6.68;2.67;;;22.20;80.00;;;;;;5033307;28;20037;-81
2023/09/18 09:08:36;;;;;;;4.72;2.22;;;22.20;79.90;;;;;;5036024;28;20037;-79
2023/09/18 09:11:03;;;;;;;5.35;2.50;;;22.20;79.80;;;;;;5037791;28;20032;-80
2023/09/18 09:13:29;;;;;;;5.45;2.17;;;22.20;79.70;;;;;;5034368;28;20082;-80
2023/09/18 09:15:57;;;;;;;4.68;2.38;;;22.20;79.60;;;;;;5037026;28;20454;-80
2023/09/18 09:18:24;;;;;;;6.03;2.65;;;22.20;79.50;;;;;;5017803;28;20021;-80
2023/09/18 09:20:59;;;;;;;3.97;2.00;;;22.10;79.40;;;;;;5034503;28;20057;-81
2023/09/18 09:23:45;;;;;;;6.57;2.35;;;22.20;79.30;;;;;;5041444;28;20030;-81
2023/09/18 09:26:16;;;;;;;5.07;2.22;;;22.30;79.20;;;;;;5036267;28;20040;-82
2023/09/18 09:28:43;;;;;;;5.97;2.22;;;22.40;79.00;;;;;;5036508;28;20446;-80
2023/09/18 09:31:13;;;;;;;8.27;2.72;;;22.50;78.60;;;;;;5044144;28;20026;-81
2023/09/18 09:33:53;;;;;;;5.05;2.33;;;22.50;78.20;;;;;;5042274;28;20060;-80
2023/09/18 09:36:22;;;;;;;14.60;2.67;;;22.60;78.10;;;;;;5056695;28;20025;-80
2023/09/18 09:38:54;;;;;;;5.85;2.60;;;22.80;77.70;;;;;;5046075;28;20167;-81
2023/09/18 09:41:21;;;;;;;5.13;1.92;;;23.10;77.40;;;;;;5020637;28;20048;-81
2023/09/18 09:43:47;;;;;;;5.90;2.00;;;23.40;76.80;;;;;;5020920;28;20112;-80
2023/09/18 09:46:18;;;;;;;5.10;2.25;;;23.60;76.20;;;;;;5048891;28;20041;-81
2023/09/18 09:49:06;;;;;;;3.85;1.80;;;23.60;75.80;;;;;;5036509;28;20037;-80
2023/09/18 09:51:33;;;;;;;4.82;2.08;;;23.70;75.60;;;;;;5026346;28;20024;-80
2023/09/18 09:54:00;;;;;;;5.28;1.80;;;23.60;75.30;;;;;;5038373;28;20450;-81
2023/09/18 09:56:48;;;;;;;5.60;1.90;;;23.90;75.00;;;;;;5057070;28;20036;-81
2023/09/18 09:59:15;;;;;;;4.82;1.92;;;24.10;74.40;;;;;;5032555;28;20296;-79
2023/09/18 10:01:44;;;;;;;4.70;2.20;;;24.30;73.90;;;;;;5037071;28;20366;-80
2023/09/18 10:04:13;;;;;;;5.82;2.15;;;24.60;73.30;;;;;;5051504;28;20033;-80
2023/09/18 10:06:43;;;;;;;5.70;1.90;;;24.70;72.40;;;;;;5045579;28;20029;-80
2023/09/18 10:09:11;;;;;;;4.78;2.10;;;24.90;71.80;;;;;;5041323;28;20366;-80
2023/09/18 10:11:48;;;;;;;4.72;1.70;;;25.00;71.50;;;;;;5018657;28;20033;-80
2023/09/18 10:14:19;;;;;;;3.60;1.70;;;25.10;71.10;;;;;;5036107;28;20108;-79
2023/09/18 10:16:51;;;;;;;5.57;1.67;;;25.30;70.70;;;;;;5022379;28;20089;-79
2023/09/18 10:19:33;;;;;;;4.28;1.80;;;25.40;70.50;;;;;;5049163;28;20049;-79
2023/09/18 10:22:26;;;;;;;5.30;1.77;;;25.30;70.20;;;;;;5029943;28;20040;-79
2023/09/18 10:25:00;;;;;;;3.95;1.85;;;25.30;70.10;;;;;;5038538;28;20021;-79
2023/09/18 10:27:26;;;;;;;5.72;2.05;;;25.00;70.20;;;;;;5046295;28;20033;-79
2023/09/18 10:29:54;;;;;;;6.60;2.08;;;24.70;70.60;;;;;;5039100;28;20029;-79
2023/09/18 10:32:22;;;;;;;3.97;1.88;;;24.50;71.00;;;;;;5046740;28;20033;-80
2023/09/18 10:34:48;;;;;;;6.30;2.00;;;24.30;71.30;;;;;;5040940;28;20025;-80
2023/09/18 10:37:15;;;;;;;5.43;2.08;;;24.10;71.60;;;;;;5043693;28;20095;-79
2023/09/18 10:39:43;;;;;;;6.22;2.55;;;23.90;71.70;;;;;;5038496;28;20067;-79
2023/09/18 10:42:10;;;;;;;7.22;2.40;;;23.90;71.90;;;;;;5054701;28;20330;-79
2023/09/18 10:44:39;;;;;;;4.80;2.17;;;23.80;71.90;;;;;;5039348;28;20029;-79
2023/09/18 10:47:07;;;;;;;5.70;2.55;;;23.90;71.80;;;;;;5049869;28;20454;-79
2023/09/18 10:49:35;;;;;;;6.82;2.80;;;23.90;71.60;;;;;;5050190;28;20025;-79
2023/09/18 10:52:01;;;;;;;6.43;2.65;;;23.90;71.50;;;;;;5036387;28;20033;-79
2023/09/18 10:54:29;;;;;;;6.00;2.92;;;23.80;71.50;;;;;;5035858;28;20017;-79
2023/09/18 10:56:57;;;;;;;6.43;2.95;;;23.70;71.40;;;;;;5034916;28;20025;-79
2023/09/18 10:59:23;;;;;;;6.43;2.67;;;23.60;71.40;;;;;;5039328;28;20025;-79
2023/09/18 11:01:49;;;;;;;7.00;3.03;;;23.60;71.50;;;;;;5040820;28;20046;-79
2023/09/18 11:04:19;;;;;;;5.72;2.65;;;23.50;71.50;;;;;;5032607;28;20075;-79
2023/09/18 11:06:54;;;;;;;5.75;2.78;;;23.40;71.70;;;;;;5035585;28;20033;-79
2023/09/18 11:09:23;;;;;;;8.25;2.75;;;23.40;71.90;;;;;;5035848;28;20055;-77
2023/09/18 11:11:56;;;;;;;5.32;2.63;;;23.30;71.90;;;;;;5035081;28;20367;-79
2023/09/18 11:14:22;;;;;;;8.05;2.60;;;23.30;72.10;;;;;;5034930;28;20568;-79
2023/09/18 11:16:49;;;;;;;6.55;2.83;;;23.30;72.30;;;;;;5033618;28;20172;-79
2023/09/18 11:19:19;;;;;;;7.15;2.83;;;23.30;72.40;;;;;;5019293;28;20054;-79
2023/09/18 11:21:45;;;;;;;6.03;2.65;;;23.30;72.40;;;;;;5047658;28;20110;-79
2023/09/18 11:24:21;;;;;;;7.20;2.75;;;23.20;72.50;;;;;;5027527;28;20033;-80
2023/09/18 11:26:49;;;;;;;6.80;2.90;;;23.50;72.40;;;;;;5024784;28;20030;-79
2023/09/18 11:29:21;;;;;;;8.45;3.22;;;23.60;71.80;;;;;;5035213;28;20037;-78
2023/09/18 11:31:56;;;;;;;7.30;3.08;;;23.70;71.50;;;;;;5041216;28;20026;-78
2023/09/18 11:34:26;;;;;;;14.77;2.80;;;23.80;71.40;;;;;;5047535;28;20423;-79
2023/09/18 11:36:52;;;;;;;4.53;2.67;;;23.90;71.20;;;;;;5033328;28;20059;-79
2023/09/18 11:39:36;;;;;;;6.13;2.40;;;23.80;71.20;;;;;;5032700;28;20049;-79
2023/09/18 11:42:22;;;;;;;5.85;2.90;;;23.70;71.90;;;;;;5048424;28;20041;-78
2023/09/18 11:44:49;;;;;;;6.97;2.85;;;23.50;71.50;;;;;;5033037;28;20021;-79
2023/09/18 11:47:24;;;;;;;5.78;2.80;;;23.30;71.90;;;;;;5030244;28;20037;-79
2023/09/18 11:49:57;;;;;;;7.28;3.33;;;23.20;72.10;;;;;;5034089;28;20025;-79
2023/09/18 11:52:28;;;;;;;7.97;3.30;;;23.10;72.30;;;;;;5031722;28;20377;-79
2023/09/18 11:55:00;;;;;;;;;;;23.00;72.70;;;;;;5029668;28;20029;-79
2023/09/18 11:57:28;;;;;;;8.18;3.58;;;22.90;73.00;;;;;;5032985;28;20051;-79
2023/09/18 11:59:55;;;;;;;7.85;2.85;;;23.00;73.20;;;;;;5045208;28;20064;-78
2023/09/18 12:02:40;;;;;;;7.97;3.22;;;23.20;72.90;;;;;;5030027;28;20030;-78
2023/09/18 12:05:17;;;;;;;6.85;3.10;;;23.50;72.40;;;;;;5032117;28;20041;-78
2023/09/18 12:07:45;;;;;;;8.27;3.35;;;23.80;71.80;;;;;;5048285;28;20059;-78
2023/09/18 12:10:12;;;;;;;9.52;3.28;;;23.90;71.40;;;;;;5045410;28;20048;-80
2023/09/18 12:12:38;;;;;;;8.70;3.10;;;24.10;71.00;;;;;;5032185;28;20033;-79
2023/09/18 12:15:04;;;;;;;5.82;2.88;;;24.20;70.50;;;;;;5026310;28;20047;-80
2023/09/18 12:17:30;;;;;;;6.70;2.85;;;24.30;70.20;;;;;;5034364;28;20029;-79
2023/09/18 12:19:56;;;;;;;6.50;3.17;;;24.30;69.80;;;;;;5031502;28;20022;-79
2023/09/18 12:22:29;;;;;;;6.00;2.80;;;24.30;69.50;;;;;;5034833;28;20048;-79
2023/09/18 12:25:14;;;;;;;9.25;3.08;;;24.30;69.00;;;;;;5034147;28;20021;-79
2023/09/18 12:27:41;;;;;;;9.30;3.05;;;24.40;69.00;;;;;;5042583;28;20481;-80
2023/09/18 12:30:08;;;;;;;6.32;2.83;;;24.30;68.90;;;;;;5030880;28;20140;-79
2023/09/18 12:32:38;;;;;;;6.43;3.15;;;24.40;68.80;;;;;;5024278;28;20033;-79
2023/09/18 12:35:06;;;;;;;7.68;3.20;;;24.40;68.70;;;;;;5032971;28;20041;-80
2023/09/18 12:37:34;;;;;;;6.40;3.05;;;24.50;68.40;;;;;;5033189;28;20446;-79
2023/09/18 12:40:00;;;;;;;5.75;3.00;;;24.50;68.30;;;;;;5033875;28;20079;-79
2023/09/18 12:42:27;;;;;;;6.95;3.25;;;24.50;68.20;;;;;;5033855;28;20025;-79